createdAt,value
2017-06-18T11:35:07.473Z,2484
2017-06-18T11:35:48.076Z,2492
2017-06-18T11:36:28.722Z,2496
2017-06-18T11:37:09.313Z,2508
2017-06-18T11:37:51.502Z,2516
2017-06-18T11:38:32.100Z,2524
2017-06-18T11:39:30.980Z,2552
2017-06-18T11:40:11.611Z,2564
2017-06-18T11:40:53.607Z,2576
2017-06-18T11:41:36.765Z,2584
2017-06-18T11:42:17.391Z,2584
2017-06-18T11:43:02.621Z,2596
2017-06-18T11:43:43.228Z,2604
2017-06-18T11:44:23.844Z,2620
2017-06-18T11:45:04.444Z,2612
2017-06-18T11:45:45.023Z,2612
2017-06-18T11:46:25.616Z,2616
2017-06-18T11:47:06.225Z,2620
2017-06-18T11:47:46.889Z,2616
2017-06-18T11:48:27.480Z,2640
2017-06-18T11:49:08.185Z,2648
2017-06-18T11:49:48.771Z,2656
2017-06-18T11:50:29.390Z,2656
2017-06-18T11:51:10.005Z,2672
2017-06-18T11:51:50.638Z,2652
2017-06-18T11:52:31.228Z,2664
2017-06-18T11:53:11.827Z,2672
2017-06-18T11:53:52.432Z,2688
2017-06-18T11:54:33.017Z,2692
2017-06-18T11:55:13.691Z,2704
2017-06-18T11:55:54.326Z,2708
2017-06-18T11:56:34.962Z,2724
2017-06-18T11:57:15.558Z,2728
2017-06-18T11:57:56.189Z,2728
2017-06-18T11:58:36.754Z,2720
2017-06-18T11:59:17.331Z,2720
2017-06-18T11:59:57.920Z,2724
2017-06-18T12:00:38.513Z,2724
2017-06-18T12:01:19.132Z,2732
2017-06-18T12:01:59.721Z,2744
2017-06-18T12:02:40.340Z,2752
2017-06-18T12:03:21.046Z,2748
2017-06-18T12:04:01.792Z,2756
2017-06-18T12:04:42.606Z,2764
2017-06-18T12:05:51.880Z,2764
2017-06-18T12:06:46.210Z,2776
2017-06-18T12:07:28.669Z,2772
2017-06-18T12:08:11.970Z,2784
2017-06-18T12:09:52.480Z,2812
2017-06-18T12:10:47.628Z,2816
2017-06-18T12:11:29.936Z,2824
2017-06-18T12:12:11.383Z,2828
2017-06-18T12:12:53.363Z,2836
2017-06-18T12:13:35.379Z,2844
2017-06-18T12:14:16.841Z,2852
2017-06-18T12:14:57.802Z,2860
2017-06-18T12:15:38.388Z,2864
2017-06-18T12:16:18.972Z,2896
2017-06-18T12:16:59.558Z,2876
2017-06-18T12:17:40.574Z,2888
2017-06-18T12:18:21.541Z,2884
2017-06-18T12:19:02.244Z,2896
2017-06-18T12:19:43.054Z,2912
2017-06-18T12:20:23.928Z,2896
2017-06-18T12:21:04.735Z,2904
2017-06-18T12:21:45.555Z,2924
2017-06-18T12:22:27.403Z,2936
2017-06-18T12:23:08.537Z,2936
2017-06-18T12:23:49.311Z,2944
2017-06-18T12:24:30.023Z,2960
2017-06-18T12:25:10.782Z,2976
2017-06-18T12:25:51.380Z,2996
2017-06-18T12:26:32.285Z,3008
2017-06-18T12:27:12.941Z,3028
2017-06-18T12:27:53.599Z,3044
2017-06-18T12:28:34.192Z,3052
2017-06-18T12:29:14.788Z,3060
2017-06-18T12:29:55.366Z,3056
2017-06-18T12:30:35.947Z,3060
2017-06-18T12:31:16.525Z,3060
2017-06-18T12:31:57.115Z,3076
2017-06-18T12:32:37.725Z,3072
2017-06-18T12:33:18.567Z,3084
2017-06-18T18:50:50.260Z,700
2017-06-18T18:51:30.901Z,688
2017-06-18T18:52:11.621Z,676
2017-06-18T18:52:56.905Z,664
2017-06-18T18:53:37.644Z,648
2017-06-18T18:54:18.357Z,636
2017-06-18T18:54:58.945Z,620
2017-06-18T18:55:43.902Z,604
2017-06-18T18:56:24.539Z,596
2017-06-18T18:57:05.126Z,580
2017-06-18T18:57:45.839Z,568
2017-06-18T18:58:26.374Z,552
2017-06-18T18:59:06.969Z,540
2017-06-18T18:59:47.563Z,528
2017-06-18T19:00:28.157Z,520
2017-06-18T19:01:08.779Z,504
2017-06-18T19:01:49.371Z,496
2017-06-18T19:02:30.034Z,480
2017-06-18T19:03:10.632Z,472
2017-06-18T19:03:51.241Z,460
2017-06-18T19:04:31.877Z,448
2017-06-18T19:05:12.496Z,436
2017-06-18T19:05:53.099Z,428
2017-06-18T19:06:33.736Z,416
2017-06-18T19:07:14.473Z,404
2017-06-18T19:07:55.106Z,392
2017-06-18T19:08:35.709Z,384
2017-06-18T19:09:16.326Z,372
2017-06-18T19:09:56.994Z,360
2017-06-18T19:10:37.570Z,348
2017-06-18T19:11:18.201Z,344
2017-06-18T19:11:58.817Z,328
2017-06-18T19:12:39.449Z,320
2017-06-18T19:13:20.039Z,312
2017-06-18T19:14:00.652Z,304
2017-06-18T19:14:41.239Z,292
2017-06-18T19:15:21.850Z,284
2017-06-18T19:16:02.428Z,276
2017-06-18T19:16:43.037Z,268
2017-06-18T19:17:23.695Z,260
2017-06-18T19:18:04.292Z,252
2017-06-18T19:18:44.934Z,244
2017-06-18T19:19:25.524Z,236
2017-06-18T19:20:06.218Z,228
2017-06-18T19:20:46.823Z,220
2017-06-18T19:21:27.636Z,212
2017-06-18T19:22:08.221Z,204
2017-06-18T19:22:48.808Z,196
2017-06-18T19:23:31.348Z,192
2017-06-18T19:24:11.953Z,184
2017-06-18T19:24:52.626Z,176
2017-06-18T19:25:33.888Z,168
2017-06-18T19:26:14.535Z,164
2017-06-18T19:26:55.088Z,152
2017-06-18T19:27:35.807Z,148
2017-06-18T19:28:16.394Z,140
2017-06-18T19:28:57.000Z,136
2017-06-18T19:29:37.606Z,128
2017-06-18T19:30:18.250Z,124
2017-06-18T19:30:58.835Z,116
2017-06-18T19:31:39.424Z,116
2017-06-18T19:32:20.011Z,108
2017-06-18T19:33:00.631Z,100
2017-06-18T19:33:42.069Z,96
2017-06-18T19:34:27.087Z,92
2017-06-18T19:35:07.686Z,88
2017-06-18T19:35:48.307Z,84
2017-06-18T19:36:28.948Z,80
2017-06-18T19:37:09.552Z,72
2017-06-18T19:37:50.164Z,68
2017-06-18T19:38:30.751Z,64
2017-06-18T19:39:11.334Z,64
2017-06-18T19:39:51.935Z,60
2017-06-18T19:40:32.488Z,56
2017-06-18T19:41:13.076Z,52
2017-06-18T19:41:53.663Z,48
2017-06-18T19:42:34.240Z,44
2017-06-18T19:43:14.883Z,40
2017-06-18T19:43:55.481Z,40
2017-06-18T19:44:36.063Z,36
2017-06-18T19:45:16.667Z,32
2017-06-18T19:45:57.257Z,32
2017-06-18T19:46:37.843Z,32
2017-06-18T19:47:18.422Z,28
2017-06-18T19:47:59.018Z,24
2017-06-18T19:48:39.623Z,24
2017-06-18T19:49:20.200Z,24
2017-06-18T19:50:00.811Z,20
2017-06-18T19:50:41.393Z,20
2017-06-18T19:51:21.990Z,20
2017-06-18T19:52:02.620Z,16
2017-06-18T19:52:43.210Z,16
2017-06-18T19:53:23.793Z,12
2017-06-18T19:54:04.384Z,12
2017-06-18T19:54:44.968Z,12
2017-06-18T19:55:25.549Z,12
2017-06-18T19:56:06.145Z,12
2017-06-18T19:56:46.748Z,8
2017-06-18T19:57:27.338Z,8
2017-06-18T19:58:07.950Z,8
2017-06-18T19:58:48.543Z,8
2017-06-18T19:59:29.129Z,4
2017-06-18T20:00:09.717Z,8
2017-06-18T20:00:52.082Z,4
2017-06-18T20:01:32.663Z,4
2017-06-18T20:02:13.287Z,4
2017-06-18T20:02:53.883Z,4
2017-06-18T20:03:34.664Z,4
2017-06-18T20:04:15.264Z,4
2017-06-18T20:04:55.901Z,4
2017-06-18T20:05:36.544Z,4
2017-06-18T20:06:17.205Z,0
2017-06-18T20:06:57.803Z,4
2017-06-18T20:07:38.383Z,4
2017-06-18T20:08:18.998Z,4
2017-06-18T20:08:59.578Z,4
2017-06-18T20:09:40.190Z,0
2017-06-18T20:10:20.775Z,0
2017-06-18T20:11:01.376Z,0
2017-06-18T20:11:41.955Z,4
2017-06-18T20:12:22.541Z,4
2017-06-18T20:13:03.136Z,4
2017-06-18T20:13:43.747Z,0
2017-06-18T20:14:24.333Z,0
2017-06-18T20:15:04.922Z,0
2017-06-18T20:15:45.500Z,0
2017-06-18T20:16:26.086Z,0
2017-06-18T20:17:06.678Z,0
2017-06-18T20:17:47.266Z,0
2017-06-18T20:18:27.857Z,0
2017-06-18T20:19:08.498Z,0
2017-06-18T20:19:49.143Z,0
2017-06-18T20:20:29.738Z,0
2017-06-18T20:21:10.332Z,0
2017-06-18T20:21:50.920Z,0
2017-06-18T20:22:31.525Z,0
2017-06-18T20:23:12.126Z,0
2017-06-18T20:23:52.704Z,0
2017-06-18T20:24:33.299Z,0
2017-06-18T20:25:13.891Z,0
2017-06-18T20:25:54.486Z,0
2017-06-18T20:26:35.105Z,0
2017-06-18T20:27:15.695Z,0
2017-06-18T20:27:56.341Z,0
2017-06-18T20:28:36.946Z,0
2017-06-18T20:29:17.563Z,0
2017-06-18T20:29:58.147Z,0
2017-06-18T20:30:38.746Z,0
2017-06-18T20:31:19.332Z,0
2017-06-18T20:31:59.912Z,0
2017-06-18T20:32:40.520Z,0
2017-06-18T20:33:21.110Z,0
2017-06-18T20:34:01.699Z,0
2017-06-18T20:34:42.303Z,0
2017-06-18T20:35:22.893Z,0
2017-06-18T20:36:03.513Z,0
2017-06-18T20:36:44.134Z,0
2017-06-18T20:37:24.731Z,0
2017-06-18T20:38:05.326Z,0
2017-06-18T20:38:45.900Z,0
2017-06-18T20:39:26.493Z,0
2017-06-18T20:40:07.140Z,0
2017-06-18T20:40:47.719Z,0
2017-06-18T20:41:28.299Z,0
2017-06-18T20:42:08.916Z,0
2017-06-18T20:42:49.487Z,0
2017-06-18T20:43:30.091Z,0
2017-06-18T20:44:10.685Z,0
2017-06-18T20:44:51.300Z,0
2017-06-18T20:45:31.922Z,0
2017-06-18T20:46:12.514Z,0
2017-06-18T20:46:53.093Z,0
2017-06-18T20:47:33.678Z,0
2017-06-18T20:48:14.251Z,0
2017-06-18T20:48:54.877Z,0
2017-06-18T20:49:35.452Z,0
2017-06-18T20:50:16.034Z,0
2017-06-18T20:50:56.619Z,0
2017-06-18T20:51:37.405Z,0
2017-06-18T20:52:19.969Z,0
2017-06-18T20:53:00.930Z,0
2017-06-18T20:53:41.512Z,0
2017-06-18T20:54:22.126Z,0
2017-06-18T20:55:02.720Z,0
2017-06-18T20:55:43.323Z,0
2017-06-18T20:56:23.928Z,0
2017-06-18T20:57:04.540Z,0
2017-06-18T20:57:45.135Z,0
2017-06-18T20:58:25.729Z,0
2017-06-18T20:59:06.324Z,0
2017-06-18T20:59:46.957Z,0
2017-06-18T21:00:27.749Z,0
2017-06-18T21:01:08.437Z,0
2017-06-18T21:01:49.074Z,0
2017-06-18T21:02:29.658Z,0
2017-06-18T21:03:10.240Z,0
2017-06-18T21:03:50.866Z,0
2017-06-18T21:04:31.455Z,0
2017-06-18T21:05:12.072Z,0
2017-06-18T21:05:52.794Z,0
2017-06-18T21:06:33.784Z,0
2017-06-18T21:07:14.418Z,0
2017-06-18T21:07:55.066Z,0
2017-06-18T21:08:39.515Z,0
2017-06-18T21:09:21.118Z,0
2017-06-18T21:10:02.531Z,0
2017-06-18T21:10:47.740Z,0
2017-06-18T21:11:28.750Z,0
2017-06-18T21:12:10.205Z,0
2017-06-18T21:12:51.659Z,0
2017-06-18T21:13:33.418Z,0
2017-06-18T21:14:14.923Z,0
2017-06-18T21:14:55.349Z,0
2017-06-18T21:15:36.550Z,0
2017-06-18T21:16:20.970Z,0
2017-06-18T21:17:02.236Z,0
2017-06-18T21:17:42.999Z,0
2017-06-18T21:57:03.118Z,0
2017-06-18T21:57:44.157Z,0
2017-06-18T21:58:24.752Z,0
2017-06-18T21:59:05.503Z,0
2017-06-18T21:59:46.259Z,0
2017-06-18T22:00:26.944Z,0
2017-06-18T22:01:07.683Z,0
2017-06-18T22:01:48.345Z,0
2017-06-18T22:02:29.200Z,0
2017-06-18T22:03:10.012Z,0
2017-06-18T22:03:50.655Z,0
2017-06-18T22:04:31.546Z,0
2017-06-18T22:05:12.408Z,0
2017-06-18T22:05:53.188Z,0
2017-06-18T22:06:33.831Z,0
2017-06-18T22:07:14.499Z,0
2017-06-18T22:07:55.144Z,0
2017-06-18T22:08:35.934Z,0
2017-06-18T22:09:16.668Z,0
2017-06-18T22:09:57.288Z,0
2017-06-18T22:10:37.973Z,0
2017-06-18T22:11:18.643Z,0
2017-06-18T22:11:59.299Z,0
2017-06-18T22:12:40.169Z,0
2017-06-18T22:13:21.064Z,0
2017-06-18T22:14:01.877Z,0
2017-06-18T22:14:42.562Z,0
2017-06-18T22:15:23.163Z,0
2017-06-18T22:16:03.923Z,0
2017-06-18T22:16:44.567Z,0
2017-06-18T22:17:25.310Z,0
2017-06-18T22:18:06.006Z,0
2017-06-18T22:18:46.642Z,0
2017-06-18T22:19:27.381Z,0
2017-06-18T22:20:08.002Z,0
2017-06-18T22:20:48.728Z,0
2017-06-18T22:21:29.424Z,0
2017-06-18T22:22:10.073Z,0
2017-06-18T22:22:50.738Z,0
2017-06-18T22:23:31.505Z,0
2017-06-18T22:24:12.256Z,0
2017-06-18T22:24:52.939Z,0
2017-06-18T22:25:33.582Z,0
2017-06-18T22:26:14.287Z,0
2017-06-18T22:26:54.973Z,0
2017-06-18T22:27:35.673Z,0
2017-06-18T22:28:16.352Z,0
2017-06-18T22:28:57.006Z,0
2017-06-18T22:29:37.584Z,0
2017-06-18T22:30:18.254Z,0
2017-06-18T22:30:58.956Z,0
2017-06-18T22:31:39.735Z,0
2017-06-18T22:32:20.363Z,0
2017-06-18T22:33:01.021Z,0
2017-06-18T22:33:41.947Z,0
2017-06-18T22:34:22.661Z,0
2017-06-18T22:35:03.508Z,0
2017-06-18T22:35:44.277Z,0
2017-06-18T22:36:24.902Z,0
2017-06-18T22:37:05.623Z,0
2017-06-18T22:37:46.424Z,0
2017-06-18T22:38:27.121Z,0
2017-06-18T22:39:07.691Z,0
2017-06-18T22:39:48.311Z,0
2017-06-18T22:40:28.953Z,0
2017-06-18T22:41:09.653Z,0
2017-06-18T22:41:50.296Z,0
2017-06-18T22:42:31.069Z,0
2017-06-18T22:43:11.655Z,0
2017-06-18T22:43:52.257Z,0
2017-06-18T22:44:32.841Z,0
2017-06-18T22:45:13.458Z,0
2017-06-18T22:45:54.051Z,0
2017-06-18T22:46:34.639Z,0
2017-06-18T22:47:15.251Z,0
2017-06-18T22:47:55.828Z,0
2017-06-18T22:48:36.417Z,0
2017-06-18T22:49:17.002Z,0
2017-06-18T22:49:57.580Z,0
2017-06-18T22:50:38.167Z,0
2017-06-18T22:51:18.756Z,0
2017-06-18T22:51:59.365Z,0
2017-06-18T22:52:39.952Z,0
2017-06-18T22:53:20.534Z,0
2017-06-18T22:54:01.124Z,0
2017-06-18T22:54:41.765Z,0
2017-06-18T22:55:22.372Z,0
2017-06-18T22:56:02.967Z,0
2017-06-18T22:56:43.555Z,0
2017-06-18T22:57:24.154Z,0
2017-06-18T22:58:04.735Z,0
2017-06-18T22:58:45.328Z,0
2017-06-18T22:59:25.918Z,0
2017-06-18T23:00:06.513Z,0
2017-06-18T23:00:47.108Z,0
2017-06-18T23:01:27.687Z,0
2017-06-18T23:02:08.306Z,0
2017-06-18T23:02:48.881Z,0
2017-06-18T23:03:29.469Z,0
2017-06-18T23:04:10.083Z,0
2017-06-18T23:04:50.675Z,0
2017-06-18T23:05:31.261Z,0
2017-06-18T23:06:11.842Z,0
2017-06-18T23:06:52.431Z,0
2017-06-18T23:07:33.063Z,0
2017-06-18T23:08:13.641Z,0
2017-06-18T23:08:54.243Z,0
2017-06-18T23:09:34.827Z,0
2017-06-18T23:10:15.429Z,0
2017-06-18T23:10:56.053Z,0
2017-06-18T23:11:36.633Z,0
2017-06-18T23:12:17.245Z,0
2017-06-18T23:12:57.824Z,0
2017-06-18T23:13:38.404Z,0
2017-06-18T23:14:18.992Z,0
2017-06-18T23:14:59.587Z,0
2017-06-18T23:15:40.188Z,0
2017-06-18T23:16:20.790Z,0
2017-06-18T23:17:01.358Z,0
2017-06-18T23:17:41.958Z,0
2017-06-18T23:18:22.546Z,0
2017-06-18T23:19:03.169Z,0
2017-06-18T23:19:43.759Z,0
2017-06-18T23:20:24.366Z,0
2017-06-18T23:21:04.958Z,0
2017-06-18T23:21:45.533Z,0
2017-06-18T23:22:26.157Z,0
2017-06-18T23:23:06.995Z,0
2017-06-18T23:23:47.577Z,0
2017-06-18T23:24:28.178Z,0
2017-06-18T23:25:08.769Z,0
2017-06-18T23:25:49.395Z,0
2017-06-18T23:26:29.986Z,0
2017-06-18T23:27:10.617Z,0
2017-06-18T23:27:51.184Z,0
2017-06-18T23:28:31.782Z,0
2017-06-18T23:29:12.372Z,0
2017-06-18T23:29:52.947Z,0
2017-06-18T23:30:33.537Z,0
2017-06-18T23:31:14.126Z,0
2017-06-18T23:31:54.717Z,0
2017-06-18T23:32:35.303Z,0
2017-06-18T23:33:15.920Z,0
2017-06-18T23:33:56.531Z,0
2017-06-18T23:34:37.114Z,0
2017-06-18T23:35:17.698Z,0
2017-06-18T23:35:58.384Z,0
2017-06-18T23:36:38.982Z,0
2017-06-18T23:37:19.569Z,0
2017-06-18T23:38:00.153Z,0
2017-06-18T23:38:40.752Z,0
2017-06-18T23:39:21.322Z,0
2017-06-18T23:40:01.922Z,0
2017-06-18T23:40:42.494Z,0
2017-06-18T23:41:23.077Z,0
2017-06-18T23:42:03.660Z,0
2017-06-18T23:42:44.251Z,0
2017-06-18T23:43:24.823Z,0
2017-06-18T23:44:05.404Z,0
2017-06-18T23:44:45.984Z,0
2017-06-18T23:45:26.566Z,0
2017-06-18T23:46:07.153Z,0
2017-06-18T23:46:47.728Z,0
2017-06-18T23:47:28.311Z,0
2017-06-18T23:48:08.919Z,0
2017-06-18T23:48:49.500Z,0
2017-06-18T23:49:30.086Z,0
2017-06-18T23:50:10.677Z,0
2017-06-18T23:50:51.473Z,0
2017-06-18T23:51:32.077Z,0
2017-06-18T23:52:12.672Z,0
2017-06-18T23:52:53.252Z,0
2017-06-18T23:53:33.881Z,0
2017-06-18T23:54:14.468Z,0
2017-06-18T23:54:55.059Z,0
2017-06-18T23:55:35.834Z,0
2017-06-18T23:56:16.448Z,0
2017-06-18T23:56:57.005Z,0
2017-06-18T23:57:37.586Z,0
2017-06-18T23:58:18.182Z,0
2017-06-18T23:58:58.780Z,0
2017-06-18T23:59:39.370Z,0
